Central Sierra Snow Lab Weather observations

Data are for 10 minute period ending at time listed.
 Day   Time    Incoming  Reflected   Ave.   Ave.    Ave.    Vector  Max.    Ave.    Total    Snow   
  of    of      Solar     Solar      Air    Rel.    Wind    Wind    Wind   Baro.   Precip.   Depth  
Year   Day     Radiation Radiation   Temp.  Humid.  Speed   Dir.    Gust   Press.                   
2021   (PST)    Kw/m2     Kw/m2       F       %      mph     deg.    mph     mb.     in.      in.   
----------------------------------------------------------------------------------------------------
 109    1:20    0.000     999.000     32.6     68     3.1      30     3.8   795.80    7.33    8.90  
 109    1:30    0.000     999.000     32.4     68     3.1      30     4.0   795.70    7.32    8.90  
 109    1:40    0.000     999.000     32.3     67     2.9      30     3.7   795.70    7.32    9.00  
 109    1:50    0.000     999.000     32.3     65     2.5      30     3.8   795.70    7.33    9.00  
 109    2:00    0.000     999.000     32.1     66     2.4      30     4.8   795.80    7.33    9.10  
 109    2:10    0.000     999.000     32.0     65     3.6      31     5.3   795.70    7.33    9.00  
 109    2:20    0.000     999.000     32.1     65     4.1      27     5.0   795.70    7.32    8.90  
 109    2:30    0.000     999.000     31.9     67     2.4      35     3.8   795.80    7.32    9.00  
 109    2:40    0.000     999.000     31.6     67     2.3      36     3.7   795.80    7.33    9.20  
 109    2:50    0.000     999.000     31.8     66     2.7      29     4.7   795.70    7.33    9.10  
 109    3:00    0.000     999.000     31.7     66     2.4      40     4.1   795.80    7.33    9.00  
 109    3:10    0.000     999.000     31.5     67     2.6      32     4.1   795.80    7.32    9.10  
 109    3:20    0.000     999.000     31.5     67     2.2      34     4.7   795.80    7.32    9.10  
 109    3:30    0.000     999.000     31.5     66     2.4      31     4.9   795.80    7.33    9.00  
 109    3:40    0.000     999.000     31.8     64     2.3      34     4.8   795.80    7.33    9.00  
 109    3:50    0.000     999.000     31.6     66     3.5      30     4.7   795.70    7.33    8.90  
 109    4:00    0.000     999.000     31.6     67     2.0      39     4.0   795.70    7.33    9.00  
 109    4:10    0.000     999.000     31.4     67     3.1      32     6.0   795.60    7.32    9.20  
 109    4:20    0.000     999.000     31.4     67     1.8      40     4.7   795.50    7.32    9.00  
 109    4:30    0.000     999.000     31.0     68     2.5      36     3.7   795.50    7.32    9.20  
 109    4:40    0.000     999.000     31.1     69     3.8      28     5.0   795.40    7.33    8.90  
 109    4:50    0.000     999.000     30.8     69     3.3      36     5.7   795.40    7.33    9.10  
 109    5:00    0.000     999.000     30.9     68     3.1      33     5.1   795.40    7.33    9.20  
 109    5:10    0.000     999.000     30.7     69     1.7      41     3.6   795.50    7.33    9.10  
 109    5:20    0.002     999.000     30.8     69     2.7      36     4.3   795.50    7.33    9.10  
 109    5:30    0.005     999.000     30.7     70     2.0      47     4.4   795.40    7.33    9.00  
 109    5:40    0.008     999.000     30.6     70     1.5      49     2.2   795.50    7.33    8.80  
 109    5:50    0.011     999.000     30.8     70     2.2      57     3.8   795.50    7.33    8.90  
 109    6:00    0.012     999.000     31.3     68     1.9      44     3.0   795.60    7.33    9.20  
 109    6:10    0.014     999.000     31.2     68     1.9      40     3.3   795.60    7.32    9.10  
 109    6:20    0.017     999.000     31.8     67     3.2      34     4.6   795.70    7.34    9.20  
 109    6:30    0.020     999.000     32.8     66     1.9      43     3.4   795.70    7.32    8.90  
 109    6:40    0.023     999.000     33.8     66     1.9      39     3.2   795.70    7.33    8.80  
 109    6:50    0.034     999.000     34.9     63     1.7      40     2.4   795.70    7.33    8.80  
 109    7:00    0.105     999.000     36.1     61     1.6      40     2.6   795.70    7.33   45.70  
 109    7:10    0.290     999.000     37.8     57     1.5      50     2.2   795.70    7.33   154.90  
 109    7:20    0.327     999.000     40.2     53     0.9      55     1.3   795.60    7.33   164.90  
 109    7:30    0.362     999.000     43.0     48     0.3      50     1.4   795.50    7.33   149.10  
 109    7:40    0.395     999.000     45.5     44     0.0       0     0.0   795.40    7.33   129.20  
 109    7:50    0.429     999.000     47.0     41     0.0       0     0.0   795.30    7.32   164.50  
 109    8:00    0.462     999.000     49.0     38     0.0       0     0.0   795.30    7.32   163.50  
 109    8:10    0.492     999.000     50.5     37     0.7     185     2.4   795.20    7.33   163.80  
 109    8:20    0.525     999.000     52.7     30     1.4     188     3.8   795.20    7.32   28.80  
 109    8:30    0.557     999.000     54.3     24     2.2     186     4.2   795.20    7.32    9.60  
 109    8:40    0.587     999.000     54.3     24     3.1     188     6.4   795.20    7.32    8.80  
 109    8:50    0.615     999.000     55.6     24     2.1     197     4.3   795.20    7.32    9.20  
 109    9:00    0.643     999.000     55.5     22     3.2     264     7.5   795.30    7.32   10.20  
 109    9:10    0.672     999.000     55.9     19     4.4     318     8.9   795.30    7.32    9.30  
 109    9:20    0.699     999.000     56.3     19     3.4     257     8.7   795.40    7.32    9.80  
 109    9:30    0.724     999.000     56.3     19     4.1     343    11.4   795.40    7.32    9.50  
 109    9:40    0.747     999.000     56.4     19     5.0     317    13.6   795.40    7.32   10.10  
 109    9:50    0.768     999.000     56.1     19     4.8     316     9.5   795.40    7.30    9.80  
 109   10:00    0.789     999.000     57.0     19     3.7     306     8.7   795.40    7.32    9.30  
 109   10:10    0.808     999.000     56.6     19     4.4     323    12.6   795.40    7.31   10.00  
 109   10:20    0.843     999.000     56.8     20     4.6     332    10.5   795.30    7.32    9.50  
 109   10:30    0.841     999.000     57.9     19     3.2      23     8.4   795.30    7.32   10.10  
 109   10:40    0.856     999.000     58.0     20     3.4     312     7.4   795.30    7.31    9.10  
 109   10:50    0.871     999.000     58.2     21     3.7     268     9.8   795.30    7.32    8.80  
 109   11:00    0.885     999.000     58.6     19     3.5     319     8.7   795.30    7.32    8.90  
 109   11:10    0.894     999.000     58.8     18     3.1     334    10.7   795.20    7.31    9.30  
 109   11:20    0.901     999.000     59.3     20     3.3     257    10.3   795.20    7.32    9.50  
 109   11:30    0.908     999.000     59.2     20     3.0     286     8.5   795.20    7.31    8.70  
 109   11:40    0.911     999.000     59.6     20     3.6     250     6.8   795.10    7.31    8.30  
 109   11:50    0.903     999.000     59.1     20     2.8     230     7.0   795.00    7.32    7.90  
 109   12:00    0.926     999.000     59.8     20     3.1     227    10.1   795.00    7.32    7.70  
 109   12:10    0.924     999.000     60.3     20     2.6     244    10.9   794.80    7.32    7.70  
 109   12:20    0.920     999.000     60.1     19     3.0     316     8.9   794.80    7.32    7.80  
 109   12:30    0.923     999.000     59.9     19     3.9     326    10.6   794.70    7.31    7.80  
 109   12:40    0.913     999.000     59.7     20     2.8     255     9.0   794.70    7.31    7.80  
 109   12:50    0.907     999.000     60.0     20     3.9     306    10.5   794.70    7.30    8.40  
 109   13:00    0.906     999.000     59.6     20     4.0     216     9.3   794.50    7.30    8.20  
 109   13:10    0.899     999.000     59.3     20     3.9     238    11.9   794.50    7.31    7.70  
 109   13:20    0.867     999.000     59.6     21     2.7     239     7.9   794.40    7.30    7.20  
 109   13:30    0.882     999.000     60.0     19     3.8     254     9.7   794.30    7.31    7.50  
 109   13:40    0.867     999.000     60.1     22     3.3     225     6.8   794.20    7.31    9.00  
 109   13:50    0.866     999.000     59.5     24     3.7     204    10.3   794.10    7.31    8.80  
 109   14:00    0.834     999.000     59.6     23     3.9     205    10.1   794.10    7.30    8.30  
 109   14:10    0.810     999.000     59.9     19     3.9     289     9.8   794.10    7.31    8.20  
 109   14:20    0.788     999.000     59.4     22     3.5     210    10.8   794.00    7.31    8.40  
 109   14:30    0.767     999.000     59.0     23     3.5     228     7.7   794.00    7.31    8.40  
 109   14:40    0.747     999.000     59.3     23     2.9     214     8.4   793.90    7.31    7.10  
 109   14:50    0.717     999.000     59.2     22     3.5     226     7.6   793.90    7.31    8.30  
 109   15:00    0.691     999.000     58.9     23     3.8     221    10.9   793.80    7.31   71.50  
 109   15:10    0.668     999.000     58.5     22     3.9     239    11.7   793.70    7.31   163.40  
 109   15:20    0.635     999.000     58.6     20     4.4     222     9.8   793.60    7.31   162.60  
 109   15:30    0.608     999.000     58.9     23     3.1     228     7.5   793.60    7.31   161.10  
 109   15:40    0.549     999.000     58.8     23     3.7     248    11.1   793.60    7.31   162.30  
 109   15:50    0.345     999.000     58.2     24     2.8     224     8.9   793.50    7.31   146.20  
 109   16:00    0.241     999.000     57.2     25     2.3     247     7.8   793.50    7.32   163.00  
 109   16:10    0.312     999.000     56.0     28     1.9     205     5.6   793.50    7.32   164.30  
 109   16:20    0.286     999.000     56.1     28     3.4     206     8.2   793.40    7.32   164.40  
 109   16:30    0.350     999.000     55.6     29     1.8     186     4.9   793.30    7.31   164.40  
 109   16:40    0.440     999.000     57.3     27     2.8     241     6.5   793.20    7.32   164.30  
 109   16:50    0.213     999.000     56.0     28     3.2     237     8.5   793.30    7.31   164.40  
 109   17:00    0.160     999.000     54.8     30     1.5     195     5.0   793.30    7.32   164.40  
 109   17:10    0.165     999.000     55.1     31     1.9     209     5.5   793.30    7.31   164.40  
 109   17:20    0.083     999.000     55.8     30     2.1     217     8.5   793.40    7.32   164.50  
 109   17:30    0.102     999.000     56.0     28     2.7     254    10.6   793.30    7.31   164.50  
 109   17:40    0.069     999.000     55.4     30     2.5     212     7.0   793.30    7.32   164.50  
 109   17:50    0.060     999.000     54.8     32     2.4     217     6.1   793.20    7.31   164.60  
 109   18:00    0.031     999.000     53.2     33     3.0     225     8.2   793.20    7.32   164.70  
 109   18:10    0.020     999.000     51.6     36     2.9     220     7.7   793.20    7.31   164.80  
 109   18:20    0.016     999.000     51.2     36     1.2     170     4.6   793.20    7.32   164.80  
 109   18:30    0.011     999.000     50.4     38     0.8     138     2.2   793.20    7.31   164.80  
 109   18:40    0.005     999.000     49.0     41     1.0     131     2.1   793.20    7.31   164.80  
 109   18:50    0.002     999.000     46.9     46     2.1      28     3.2   793.10    7.31   164.80  
 109   19:00    0.001     999.000     44.5     51     3.4      25     3.9   793.10    7.32   164.90  
 109   19:10    0.000     999.000     42.7     56     3.5      24     4.3   793.10    7.32   164.90  
 109   19:20    0.000     999.000     41.5     59     3.3      28     3.9   793.20    7.32   164.90  
 109   19:30    0.000     999.000     40.7     60     3.9      24     6.2   793.30    7.32   164.80  
 109   19:40    0.000     999.000     40.2     61     3.8      26     4.8   793.40    7.32   165.00  
 109   19:50    0.000     999.000     39.5     62     3.8      28     4.8   793.40    7.32   164.90  
 109   20:00    0.000     999.000     39.0     63     3.7      25     5.2   793.50    7.32   164.90  
 109   20:10    0.000     999.000     38.6     64     3.8      26     5.0   793.60    7.32   164.90  
 109   20:20    0.000     999.000     38.3     65     3.3      29     4.3   793.50    7.33   164.80  
 109   20:30    0.000     999.000     37.8     66     2.1      27     3.1   793.50    7.32   105.10  
 109   20:40    0.000     999.000     37.4     67     3.1      27     4.1   793.50    7.33    8.70  
 109   20:50    0.000     999.000     37.2     68     3.3      31     4.0   793.50    7.32    8.80  
 109   21:00    0.000     999.000     37.0     69     4.1      29     4.8   793.40    7.32    8.70  
 109   21:10    0.000     999.000     36.7     70     3.2      32     4.8   793.40    7.33    8.70  
 109   21:20    0.000     999.000     36.4     70     1.9      37     4.0   793.20    7.32    8.80  
 109   21:30    0.000     999.000     36.1     70     1.5      33     2.7   793.10    7.33    8.80  
 109   21:40    0.000     999.000     35.8     71     3.4      25     4.0   793.00    7.33    8.70  
 109   21:50    0.000     999.000     35.6     72     3.3      28     4.0   793.00    7.32    8.70  
 109   22:00    0.000     999.000     35.5     72     3.5      30     4.4   793.00    7.32    8.60  
 109   22:10    0.000     999.000     35.3     73     1.7      38     2.8   793.00    7.32    8.70  
 109   22:20    0.000     999.000     35.0     73     1.2      35     2.3   792.80    7.33    8.80  
 109   22:30    0.000     999.000     34.8     74     3.0      32     4.3   792.70    7.33    8.70  
 109   22:40    0.000     999.000     34.6     75     2.0      35     3.6   792.50    7.33    8.70  
 109   22:50    0.000     999.000     34.5     74     3.1      30     3.8   792.50    7.32    8.60  
 109   23:00    0.000     999.000     34.2     75     3.2      31     4.2   792.50    7.33    8.80  
 109   23:10    0.000     999.000     34.1     75     2.1      32     4.1   792.40    7.33    8.70  
 109   23:20    0.000     999.000     33.9     75     2.1      33     3.2   792.30    7.33    8.70  
 109   23:30    0.000     999.000     33.8     75     3.5      29     4.1   792.30    7.33    8.70  
 109   23:40    0.000     999.000     33.5     75     2.9      33     3.8   792.20    7.33    8.70  
 109   23:50    0.000     999.000     33.4     75     2.0      36     3.4   792.10    7.33    8.80  
 110    0:00    0.000     999.000     33.2     75     2.4      34     3.6   792.00    7.33    8.80  
 110    0:10    0.000     999.000     33.2     74     2.9      34     4.7   791.90    7.33    8.80  
 110    0:20    0.000     999.000     33.2     74     2.6      34     4.5   791.90    7.32    8.80  
 110    0:30    0.000     999.000     32.9     73     1.4      40     2.0   791.80    7.33    8.80  
 110    0:40    0.000     999.000     32.8     72     2.6      33     3.7   791.70    7.33    8.80  
 110    0:50    0.000     999.000     32.6     73     2.9      34     3.8   791.70    7.32    8.70  
 110    1:00    0.000     999.000     32.5     74     2.1      37     3.2   791.50    7.33    8.70  
 110    1:10    0.000     999.000     32.4     73     2.2      33     3.7   791.40    7.33    8.80  

Return to Central Sierra Snow Lab graphs page.


Western Regional Climate Center,wrcc@dri.edu